Main page
METAR-TAF:

METAR-TAF

Airports :

Hawarden Airport

Hawarden, Wales

latitude: 53-10N, longitude: 002-59W, elevation: 10 m

Current weather observation

The report was made 28 minutes ago, at 13:20 UTC
Wind 8 kt from the South/Southeast, varying between Southeast and South/Southwest
Temperature 8°C
Humidity 76%
Pressure 996 hPa
Visibility 10 km or more
Few clouds at a height of 2200 ft

METAR: EGNR 131320Z 16008KT 130V200 9999 FEW022 08/04 Q0996

Time: 13:48 (13:48 UTC)

Forecast

The report was made 2 hours and 50 minutes ago, at 10:58 UTC
Forecast valid from 13 at 12 UTC to 13 at 21 UTC
Wind 5 kt from the South
Visibility 10 km or more
Scattered clouds at a height of 2000 ft
Becoming
from 13 at 14 UTC to 13 at 17 UTC
Wind 10 kt from the East

TAF: EGNR 131058Z 1312/1321 18005KT 9999 SCT020 BECMG 1314/1317 09010KT

Weather observations and forecasts of more than 4000 airports (METAR and TAF reports).

The available stations are represented by yellow and red dots on the map.

Hover mouse over dot to see the name of the station.

Then click to see weather observations and forecasts.

To change the map : click on the green buttons with a black cross to zoom in, on the green button with a dash to zoom out, or on the green arrows for adjacent maps.


METAR-TAF: